Aérodrome :
LOGIN :

S'inscrire | Disclaimer

   EN    FR    IT 

 










Légende :    VFR   VFR Marginal   IFR   IFR Intensif   IFR Très Intensif
Visi : 
Plafond : 
>= 8 km
>= 3000ft
5 à 8 km
1000 à 3000 ft
1500m à 5 km
500 à 1000 ft
800 à 1500m
200 à 500 ft
< 800m
< 200 ft
Symboles :   Orages  Brouillard  Fortes neiges  Fortes précipitations  Vent > 20 kt
SIGMETs :   Divers  Orages  Givrage  Turbulence  Onde Orograph.  Cendres Volcan.






- Altitude de l'aérodrome : 433 ft


LFOC - Chateaudun

DERNIER METAR :
  • 131930Z AUTO 21008KT 9999 FEW025/// BKN040/// BKN054/// ///CB 20/18 Q1013

METARs EXPIRÉS :
  • 131900Z AUTO 23008KT 9999 FEW033/// BKN040/// BKN048/// ///CB 20/18 Q1013
  • 131830Z AUTO 26008KT 9999 -RA FEW022/// BKN037/// BKN045/// ///TCU 20/18 Q1012
  • 131800Z AUTO 25009KT 9999 FEW016/// BKN021/// BKN032/// ///TCU 21/18 Q1012
  • 131730Z AUTO 22005KT 9999 FEW026/// BKN050/// ///TCU 22/19 Q1012
  • 131700Z AUTO VRB03KT 9999 FEW010/// SCT039/// OVC046/// ///TCU 21/19 Q1012

TAF TAF LFOC
Valide du 13 à 15h jusqu'au 14 à 15h UTC


131400Z 1315/1415 15010KT 9999 BKN025 BKN040
TEMPO 1315/1407 4000 SHRA SCT012 BKN020TCU
PROB40
TEMPO 1316/1319 21020G30KT 2000 TSRA SCT008 BKN018CB
BECMG 1407/1409 BKN015
BECMG 1413/1415 SCT040



MET'MAP, la Météo Aéronautique d'un coup d'oeil ! - Copyright ORBIFLY Décembre 2007 - Disclaimer

ORBIFLY MET'MAP TEAM :

Programmation & Développement : Alexandra Zaïnal
Sur une idée originale de : Baudouin d'Aumeries
Assistance à la programmation : Marc-Olivier Méhu
Soutien technique & logistique : Manuel Goepfert

Contact : metmap@orbifly.com




SOURCES & CREDITS :

   NOAA